Gaines Landing, Arkansas
Current Conditions -  °F | °C
As of 11:07 PM on Monday 22 Dec 2014 (Local Time) from KGLH Reporting Station
Haze Haze  
Wind Chill: 13°   Ceiling: 7000
Heat Index: 13°   Visibility: 3mi
Dew Point: 13°   Wind: 6mph
Humidity: 97%   Direction: 170°S
Pressure: 29.66"   Gusts: NA
Location:  33.3324°N, 91.3183°W
Report Text: KGLH 230507Z AUTO 17005KT 3SM BR OVC070 13/13 A2966 RMK AO2 T01330128
Loading
Personal Weather Stations






























Interactive Weather Map New forecast layout! Learn more

10-Day Weather Forecast

Advertisements
Track Severe Weather on mobile